Hearne, Texas
Current Conditions -  °F | °C
As of 7:15 PM on Saturday 22 Nov 2014 (Local Time) from KLHB Reporting Station
Light Rain Light Rain  
Wind Chill: 64°   Ceiling: 1000
Heat Index: 64°   Visibility: 10mi
Dew Point: 62°   Wind: 0mph
Humidity: 96%   Direction: NA
Pressure: 29.79"   Gusts: NA
Location:  30.87°N, 96.6°W
Report Text: KLHB 230115Z AUTO 00000KT 10SM -RA OVC010 18/17 A2979 RMK AO2 LTG DSNT W THRU E P0001 T01750168
Loading
Personal Weather Stations






























Interactive Weather Map New forecast layout! Learn more

10-Day Weather Forecast

Advertisements
Track Severe Weather on mobile